Time;durP1;ratioP1;P1;durP2;ratioP2;P2;SDS_P1;SDS_P2;PMS_P1;PMS_P2;Temp;Humidity;BMP_temperature;BMP_pressure;BME280_temperature;BME280_humidity;BME280_pressure;Samples;Min_cycle;Max_cycle;Signal;HPM_P1;HPM_P2
2022/08/18 00:00:05;;;;;;;16.80;8.30;;;;;;;20.38;73.35;99873.26;106635;1268;27107;-56
2022/08/18 00:02:58;;;;;;;16.80;8.70;;;;;;;20.33;73.36;99869.06;106537;1268;25410;-56
2022/08/18 00:05:30;;;;;;;18.90;8.30;;;;;;;20.29;73.52;99873.83;106643;1268;22843;-56
2022/08/18 00:08:02;;;;;;;15.40;8.20;;;;;;;20.26;73.51;99877.40;106651;1268;27905;-55
2022/08/18 00:10:34;;;;;;;15.70;8.30;;;;;;;20.24;73.59;99874.16;106738;1268;25360;-55
2022/08/18 00:13:06;;;;;;;20.10;8.80;;;;;;;20.22;73.68;99879.36;106666;1268;24198;-55
2022/08/18 00:15:37;;;;;;;15.70;7.80;;;;;;;20.19;73.80;99878.23;106667;1268;26998;-56
2022/08/18 00:18:09;;;;;;;15.90;7.90;;;;;;;20.15;73.99;99877.48;106682;1268;24337;-56
2022/08/18 00:20:42;;;;;;;16.90;7.90;;;;;;;20.12;74.02;99870.35;106727;1268;22773;-55
2022/08/18 00:23:14;;;;;;;17.70;7.60;;;;;;;20.10;74.12;99866.25;106567;1268;22548;-56
2022/08/18 00:25:48;;;;;;;15.50;6.90;;;;;;;20.08;74.32;99868.35;106619;1268;24166;-55
2022/08/18 00:28:20;;;;;;;16.80;7.80;;;;;;;20.07;74.38;99860.90;106468;1268;22519;-54
2022/08/18 00:30:51;;;;;;;17.20;8.80;;;;;;;20.04;74.50;99864.27;106615;1268;22688;-56
2022/08/18 00:33:23;;;;;;;20.70;9.80;;;;;;;20.00;74.67;99861.97;106645;1268;22534;-55
2022/08/18 00:35:56;;;;;;;15.00;8.40;;;;;;;19.95;74.76;99856.98;106669;1268;22684;-55
2022/08/18 00:38:27;;;;;;;20.30;9.30;;;;;;;19.91;74.90;99855.70;106548;1268;22751;-56
2022/08/18 00:40:58;;;;;;;20.10;9.40;;;;;;;19.87;75.02;99858.64;106629;1268;23131;-56
2022/08/18 00:43:39;;;;;;;16.30;8.40;;;;;;;19.84;75.20;99865.98;106765;1268;22610;-56
2022/08/18 00:46:14;;;;;;;15.70;8.70;;;;;;;19.81;75.13;99867.02;106709;1268;22679;-56
2022/08/18 00:48:47;;;;;;;18.70;8.70;;;;;;;19.78;75.19;99871.06;106572;1268;25831;-54
2022/08/18 00:51:23;;;;;;;17.30;8.80;;;;;;;19.76;75.36;99866.24;106552;1268;25354;-55
2022/08/18 00:54:02;;;;;;;18.90;8.30;;;;;;;19.73;75.56;99862.48;106545;1268;22835;-56
2022/08/18 00:56:39;;;;;;;21.00;10.20;;;;;;;19.71;75.60;99861.70;106622;1268;24192;-56
2022/08/18 00:59:16;;;;;;;17.70;9.70;;;;;;;19.66;75.70;99861.20;106630;1268;24132;-56
2022/08/18 01:01:50;;;;;;;19.30;8.70;;;;;;;19.62;75.97;99863.56;106592;1268;25497;-55
2022/08/18 01:04:25;;;;;;;15.40;8.30;;;;;;;19.58;76.04;99860.94;106592;1268;25531;-55
2022/08/18 01:07:02;;;;;;;16.20;8.60;;;;;;;19.55;76.24;99853.45;106556;1268;22692;-55
2022/08/18 01:09:33;;;;;;;16.50;7.70;;;;;;;19.51;76.34;99851.38;106472;1268;22866;-55
2022/08/18 01:12:07;;;;;;;17.90;9.10;;;;;;;19.48;76.22;99850.10;106515;1268;24263;-56
2022/08/18 01:14:39;;;;;;;18.50;8.40;;;;;;;19.44;76.43;99843.87;106876;1268;25343;-57
2022/08/18 01:23:04;;;;;;;19.80;8.40;;;;;;;19.34;76.59;99832.24;106826;1259;25598;-60
2022/08/18 01:28:27;;;;;;;16.60;8.10;;;;;;;19.34;76.92;99845.13;107157;1269;22821;-60
2022/08/18 01:31:00;;;;;;;17.20;8.90;;;;;;;19.32;77.04;99846.95;106136;1270;22791;-60
2022/08/18 01:33:36;;;;;;;20.30;10.40;;;;;;;19.29;77.09;99843.11;106094;1271;24282;-60
2022/08/18 01:36:15;;;;;;;18.00;8.60;;;;;;;19.25;77.17;99843.70;106093;1271;22525;-61
2022/08/18 01:38:50;;;;;;;17.00;9.20;;;;;;;19.22;77.21;99845.02;106052;1273;22610;-59
2022/08/18 01:41:24;;;;;;;18.90;9.00;;;;;;;19.19;77.36;99841.11;106537;1271;25717;-61
2022/08/18 01:43:57;;;;;;;20.10;9.00;;;;;;;19.15;77.44;99844.23;106249;1271;24231;-60
2022/08/18 01:46:32;;;;;;;15.80;8.10;;;;;;;19.11;77.47;99846.89;106298;1271;22560;-60
2022/08/18 01:49:03;;;;;;;17.10;8.20;;;;;;;19.08;77.46;99849.39;106066;1271;25466;-60
2022/08/18 01:51:36;;;;;;;18.20;9.20;;;;;;;19.05;77.52;99846.11;105988;1271;25612;-60
2022/08/18 01:54:08;;;;;;;17.60;9.20;;;;;;;19.01;77.55;99846.77;105818;1271;25488;-60
2022/08/18 01:56:41;;;;;;;23.20;10.10;;;;;;;18.97;77.64;99845.71;105994;1273;25217;-61
2022/08/18 01:59:13;;;;;;;16.50;8.90;;;;;;;18.93;77.67;99848.59;105836;1271;24273;-60
2022/08/18 02:01:47;;;;;;;18.80;9.20;;;;;;;18.89;77.92;99850.16;105820;1271;25242;-60
2022/08/18 02:04:22;;;;;;;20.20;8.50;;;;;;;18.85;78.02;99850.30;105867;1271;25392;-59
2022/08/18 02:06:54;;;;;;;17.30;9.40;;;;;;;18.82;77.99;99849.69;106105;1271;24351;-58
2022/08/18 02:09:27;;;;;;;19.40;9.00;;;;;;;18.79;78.11;99854.22;105968;1271;22533;-60
2022/08/18 02:11:58;;;;;;;17.90;9.20;;;;;;;18.77;78.04;99853.13;105733;1271;22694;-59
2022/08/18 02:14:31;;;;;;;15.30;8.10;;;;;;;18.77;78.24;99850.09;105814;1271;22721;-60
2022/08/18 02:17:04;;;;;;;19.50;10.10;;;;;;;18.75;78.11;99847.11;105839;1271;22565;-59
2022/08/18 02:19:37;;;;;;;19.70;9.70;;;;;;;18.73;78.26;99848.14;105764;1271;25487;-59
2022/08/18 02:22:10;;;;;;;22.60;10.80;;;;;;;18.71;78.67;99851.87;105870;1271;22632;-60
2022/08/18 02:24:42;;;;;;;19.10;9.50;;;;;;;18.69;78.77;99852.38;105789;1271;24464;-59
2022/08/18 02:27:16;;;;;;;19.20;9.50;;;;;;;18.68;78.70;99853.62;105973;1271;22704;-60
2022/08/18 02:29:48;;;;;;;18.40;10.10;;;;;;;18.69;78.61;99855.36;105766;1271;22542;-59
2022/08/18 02:32:20;;;;;;;18.80;10.20;;;;;;;18.68;78.63;99851.98;105735;1271;24336;-60
2022/08/18 02:34:52;;;;;;;19.20;9.30;;;;;;;18.68;78.64;99848.06;105857;1271;22571;-59
2022/08/18 02:37:24;;;;;;;21.70;10.10;;;;;;;18.66;78.57;99843.37;105682;1271;24243;-59
2022/08/18 02:39:56;;;;;;;18.80;9.80;;;;;;;18.64;78.68;99841.79;105853;1273;25216;-60
2022/08/18 02:42:29;;;;;;;19.80;10.00;;;;;;;18.60;78.90;99841.40;105754;1271;22649;-59
2022/08/18 02:45:01;;;;;;;21.20;10.30;;;;;;;18.58;79.62;99838.95;105886;1271;22547;-62
2022/08/18 02:47:33;;;;;;;21.30;11.10;;;;;;;18.57;79.48;99837.44;105824;1271;22544;-60
2022/08/18 02:50:05;;;;;;;18.40;9.90;;;;;;;18.55;79.68;99834.51;105856;1273;22538;-59
2022/08/18 02:52:37;;;;;;;23.40;10.70;;;;;;;18.52;79.47;99832.44;105915;1271;25393;-58
2022/08/18 02:55:11;;;;;;;18.40;9.20;;;;;;;18.52;79.55;99829.73;105878;1271;22611;-60
2022/08/18 02:57:45;;;;;;;21.50;10.90;;;;;;;18.53;79.63;99830.98;105893;1271;24354;-62
2022/08/18 03:00:19;;;;;;;19.90;10.80;;;;;;;18.54;79.66;99831.33;106034;1272;24418;-60
2022/08/18 03:02:52;;;;;;;21.20;12.40;;;;;;;18.55;79.82;99841.80;105867;1271;22609;-60
2022/08/18 03:05:23;;;;;;;22.10;10.40;;;;;;;18.56;79.83;99843.57;105868;1271;24315;-60
2022/08/18 03:07:55;;;;;;;23.50;11.30;;;;;;;18.55;79.90;99840.66;105941;1271;24447;-60
2022/08/18 03:10:26;;;;;;;22.90;10.50;;;;;;;18.56;80.17;99838.17;105860;1271;22578;-59
2022/08/18 03:12:58;;;;;;;21.50;10.40;;;;;;;18.54;80.30;99845.16;105828;1272;22559;-62
2022/08/18 03:15:29;;;;;;;22.00;10.60;;;;;;;18.52;80.36;99847.20;105871;1271;24335;-59
2022/08/18 03:18:01;;;;;;;19.80;10.80;;;;;;;18.48;80.32;99843.58;105900;1271;25383;-59
2022/08/18 03:20:33;;;;;;;23.60;11.60;;;;;;;18.45;80.48;99843.48;105928;1271;22601;-58
2022/08/18 03:23:06;;;;;;;22.70;10.80;;;;;;;18.42;80.43;99839.77;105738;1271;24242;-57
2022/08/18 03:25:42;;;;;;;19.60;10.40;;;;;;;18.39;80.42;99838.95;105896;1271;22646;-59
2022/08/18 03:28:15;;;;;;;22.20;10.40;;;;;;;18.35;80.59;99845.04;105962;1271;22619;-61
2022/08/18 03:30:46;;;;;;;28.10;12.20;;;;;;;18.31;80.67;99847.77;106020;1271;24240;-60
2022/08/18 03:33:18;;;;;;;20.50;10.20;;;;;;;18.29;80.66;99842.89;105873;1272;25493;-59
2022/08/18 03:35:49;;;;;;;20.00;10.20;;;;;;;18.29;80.66;99829.39;105926;1271;22696;-58
2022/08/18 03:38:21;;;;;;;19.20;11.10;;;;;;;18.29;80.73;99832.55;105845;1273;25352;-59
2022/08/18 03:40:55;;;;;;;28.50;14.30;;;;;;;18.32;80.91;99838.67;106113;1272;22547;-61
2022/08/18 03:43:27;;;;;;;27.60;12.40;;;;;;;18.34;81.14;99843.77;105810;1271;24447;-60
2022/08/18 03:46:02;;;;;;;20.20;11.00;;;;;;;18.34;81.40;99848.91;105904;1271;24326;-59
2022/08/18 03:48:34;;;;;;;25.30;13.00;;;;;;;18.33;81.42;99855.33;105754;1271;22602;-60
2022/08/18 03:51:08;;;;;;;26.40;12.70;;;;;;;18.32;81.63;99850.98;105776;1272;22544;-60
2022/08/18 03:53:40;;;;;;;22.50;12.30;;;;;;;18.31;81.70;99853.48;105816;1271;22699;-60
2022/08/18 03:56:15;;;;;;;25.50;12.60;;;;;;;18.30;81.83;99858.23;105807;1273;24241;-59
2022/08/18 03:58:50;;;;;;;22.50;11.50;;;;;;;18.30;81.71;99865.73;105857;1273;22678;-59
2022/08/18 04:01:26;;;;;;;26.10;13.00;;;;;;;18.30;81.92;99873.08;105711;1271;22696;-59
2022/08/18 04:04:02;;;;;;;24.60;14.20;;;;;;;18.30;82.08;99875.85;105896;1271;22549;-61
2022/08/18 04:06:38;;;;;;;23.10;12.80;;;;;;;18.29;82.27;99873.55;105887;1271;26903;-60
2022/08/18 04:09:13;;;;;;;23.20;12.20;;;;;;;18.29;82.21;99872.53;105799;1273;22706;-60
2022/08/18 04:11:46;;;;;;;26.30;13.80;;;;;;;18.28;82.52;99875.84;105739;1271;25481;-59
2022/08/18 04:14:20;;;;;;;23.90;12.20;;;;;;;18.30;82.66;99876.88;105810;1272;23086;-59
2022/08/18 04:16:51;;;;;;;23.80;13.80;;;;;;;18.32;82.76;99873.66;105728;1271;22531;-61
2022/08/18 04:19:23;;;;;;;22.10;12.90;;;;;;;18.32;82.82;99875.30;105760;1271;25662;-59
2022/08/18 04:21:56;;;;;;;24.70;13.10;;;;;;;18.33;83.08;99874.92;105904;1271;25231;-60
2022/08/18 04:24:29;;;;;;;24.70;13.10;;;;;;;18.34;83.09;99880.66;105837;1271;22688;-61
2022/08/18 04:27:03;;;;;;;23.10;12.40;;;;;;;18.34;83.18;99885.28;105953;1271;22774;-60
2022/08/18 04:29:35;;;;;;;22.00;12.90;;;;;;;18.35;83.25;99886.45;105738;1273;24064;-58
2022/08/18 04:32:07;;;;;;;23.30;12.10;;;;;;;18.36;83.08;99884.58;105880;1271;22475;-59
2022/08/18 04:34:39;;;;;;;22.80;12.40;;;;;;;18.37;83.22;99879.81;105907;1271;22556;-62
2022/08/18 04:37:12;;;;;;;24.20;12.30;;;;;;;18.39;83.34;99880.94;105784;1273;24328;-61
2022/08/18 04:39:45;;;;;;;23.50;12.10;;;;;;;18.40;83.27;99872.89;106074;1271;25380;-59
2022/08/18 04:42:17;;;;;;;22.50;11.90;;;;;;;18.44;83.65;99871.45;106109;1271;22651;-61
2022/08/18 04:44:50;;;;;;;24.20;12.30;;;;;;;18.46;83.75;99880.05;106065;1271;24448;-59
2022/08/18 04:47:21;;;;;;;23.30;13.00;;;;;;;18.49;83.93;99879.02;105970;1271;23091;-62
2022/08/18 04:49:53;;;;;;;30.20;14.70;;;;;;;18.54;84.06;99881.08;105856;1271;24409;-61
2022/08/18 04:55:14;;;;;;;26.90;13.80;;;;;;;18.67;83.99;99882.48;105673;1271;24321;-61
2022/08/18 04:57:46;;;;;;;25.90;16.10;;;;;;;18.74;84.22;99879.10;105795;1273;22673;-62
2022/08/18 05:00:18;;;;;;;29.30;15.30;;;;;;;18.80;84.59;99879.09;105841;1271;22620;-62
2022/08/18 05:02:51;;;;;;;26.10;14.20;;;;;;;18.88;84.71;99885.40;106020;1271;22535;-62
2022/08/18 05:05:23;;;;;;;26.20;15.60;;;;;;;18.94;84.69;99884.14;105738;1271;24287;-61
2022/08/18 05:07:56;;;;;;;23.80;14.10;;;;;;;19.00;84.61;99886.14;105793;1271;24441;-61
2022/08/18 05:10:28;;;;;;;27.40;15.70;;;;;;;19.06;84.69;99882.27;106400;1271;22544;-61
2022/08/18 05:13:00;;;;;;;28.00;14.20;;;;;;;19.12;84.54;99885.20;105872;1271;22567;-63
2022/08/18 05:15:32;;;;;;;22.90;13.60;;;;;;;19.19;84.50;99883.71;106016;1273;22619;-62
2022/08/18 05:18:05;;;;;;;26.80;14.90;;;;;;;19.27;84.31;99886.26;106233;1273;22539;-62
2022/08/18 05:20:39;;;;;;;27.00;15.40;;;;;;;19.36;84.38;99885.59;105681;1273;22558;-61
2022/08/18 05:23:11;;;;;;;27.00;15.70;;;;;;;19.44;84.44;99881.75;105814;1271;22544;-62
2022/08/18 05:25:43;;;;;;;30.50;15.40;;;;;;;19.52;84.38;99884.30;105843;1271;26218;-61
2022/08/18 05:28:15;;;;;;;26.30;16.10;;;;;;;19.60;84.28;99882.46;105825;1271;22662;-62
2022/08/18 05:30:47;;;;;;;32.50;17.10;;;;;;;19.69;84.28;99885.36;105896;1272;22701;-61
2022/08/18 05:33:18;;;;;;;30.90;17.10;;;;;;;19.77;84.32;99887.06;105829;1273;22526;-62
2022/08/18 05:35:55;;;;;;;30.80;17.00;;;;;;;19.86;84.31;99890.44;105879;1271;25481;-62
2022/08/18 05:38:41;;;;;;;31.20;17.20;;;;;;;19.95;84.44;99885.15;105757;1271;23206;-62
2022/08/18 05:41:20;;;;;;;31.00;16.60;;;;;;;20.04;84.60;99889.58;105782;1273;23518;-62
2022/08/18 05:43:53;;;;;;;28.50;16.30;;;;;;;20.12;84.52;99893.28;105880;1271;25179;-61
2022/08/18 05:46:35;;;;;;;26.20;17.10;;;;;;;20.23;84.41;99894.65;105771;1273;22477;-62
2022/08/18 05:49:07;;;;;;;29.80;17.40;;;;;;;20.34;84.52;99897.39;105807;1273;24292;-61
2022/08/18 05:51:44;;;;;;;33.10;17.80;;;;;;;20.45;84.34;99900.04;105790;1271;22552;-62
2022/08/18 05:57:22;;;;;;;33.50;19.20;;;;;;;20.63;84.59;99904.30;105529;1279;27082;-62
2022/08/18 05:59:55;;;;;;;32.50;19.30;;;;;;;20.71;84.47;99906.19;105733;1279;25321;-60
2022/08/18 06:02:33;;;;;;;31.10;18.80;;;;;;;20.81;84.63;99906.79;105967;1278;22756;-62
2022/08/18 06:05:10;;;;;;;35.10;19.90;;;;;;;20.92;84.88;99906.73;105616;1276;22557;-62
2022/08/18 06:07:48;;;;;;;34.30;18.90;;;;;;;21.04;84.98;99906.26;105767;1276;25710;-62
2022/08/18 06:10:21;;;;;;;32.60;19.80;;;;;;;21.21;84.97;99903.81;106033;1277;25011;-62
2022/08/18 06:12:56;;;;;;;36.80;22.40;;;;;;;21.34;84.87;99900.00;105656;1278;24075;-62
2022/08/18 06:15:39;;;;;;;32.50;20.50;;;;;;;21.46;84.26;99897.05;105596;1279;25579;-62
2022/08/18 06:18:24;;;;;;;33.10;19.60;;;;;;;21.56;84.37;99897.62;105602;1278;22618;-61
2022/08/18 06:21:18;;;;;;;30.20;18.80;;;;;;;21.70;84.38;99900.51;106643;1278;24310;-62
2022/08/18 06:23:57;;;;;;;31.80;18.50;;;;;;;21.85;84.31;99902.21;105742;1278;22563;-62
2022/08/18 06:26:40;;;;;;;27.30;17.50;;;;;;;21.96;84.18;99898.52;105781;1278;25955;-62
2022/08/18 06:29:26;;;;;;;33.40;19.70;;;;;;;22.07;83.81;99899.71;106031;1278;22561;-61
2022/08/18 06:32:10;;;;;;;35.00;20.70;;;;;;;22.18;83.46;99897.44;105769;1274;22618;-62
2022/08/18 06:34:56;;;;;;;34.60;19.40;;;;;;;22.28;83.23;99898.33;106095;1271;22699;-62
2022/08/18 06:37:33;;;;;;;29.00;19.50;;;;;;;22.41;83.28;99904.73;106440;1271;22553;-62
2022/08/18 06:40:06;;;;;;;34.10;19.00;;;;;;;22.52;83.19;99903.77;106189;1273;22848;-62
2022/08/18 06:42:38;;;;;;;32.30;19.50;;;;;;;22.62;82.80;99903.64;106285;1271;22819;-63
2022/08/18 06:45:17;;;;;;;35.80;20.50;;;;;;;22.72;82.58;99900.99;106221;1271;22696;-62
2022/08/18 06:48:00;;;;;;;30.90;19.40;;;;;;;22.83;82.23;99901.54;106033;1273;22571;-63
2022/08/18 06:50:37;;;;;;;31.60;20.10;;;;;;;22.93;82.19;99905.58;106241;1271;24945;-62
2022/08/18 06:53:10;;;;;;;35.60;20.60;;;;;;;23.02;81.87;99907.17;106260;1272;23906;-62
2022/08/18 06:55:48;;;;;;;30.00;17.80;;;;;;;23.11;82.14;99907.96;106077;1272;22730;-63
2022/08/18 06:58:30;;;;;;;32.80;20.30;;;;;;;23.23;82.08;99910.46;105995;1273;22600;-62
2022/08/18 07:01:07;;;;;;;31.10;18.50;;;;;;;23.33;81.23;99913.10;105965;1273;23874;-63
2022/08/18 07:03:50;;;;;;;33.20;18.00;;;;;;;23.41;81.02;99914.89;106017;1273;25253;-62
2022/08/18 07:06:31;;;;;;;30.20;17.50;;;;;;;23.48;80.76;99909.02;106242;1271;24353;-62
2022/08/18 07:09:24;;;;;;;24.70;16.80;;;;;;;23.56;80.81;99906.77;106076;1271;25176;-62
2022/08/18 07:12:06;;;;;;;33.00;17.30;;;;;;;23.66;80.25;99906.20;106076;1271;22534;-62
2022/08/18 07:14:47;;;;;;;38.70;18.20;;;;;;;23.74;80.01;99901.54;106054;1271;24434;-63
2022/08/18 07:17:25;;;;;;;28.80;18.00;;;;;;;23.85;80.15;99901.36;105979;1271;22544;-62
2022/08/18 07:20:06;;;;;;;28.00;17.40;;;;;;;23.95;79.43;99901.15;106166;1273;22567;-62
2022/08/18 07:22:54;;;;;;;30.50;16.70;;;;;;;24.07;79.43;99904.43;101921;1273;5507511;-62
2022/08/18 07:25:28;;;;;;;28.90;16.90;;;;;;;24.18;78.79;99903.52;106089;1271;24400;-63
2022/08/18 07:28:01;;;;;;;28.00;17.00;;;;;;;24.26;78.30;99904.13;106142;1272;25325;-62
2022/08/18 07:30:37;;;;;;;24.40;15.10;;;;;;;24.35;78.35;99899.88;105969;1271;22701;-62
2022/08/18 07:33:14;;;;;;;27.70;15.40;;;;;;;24.43;77.48;99893.27;105918;1271;26710;-62
2022/08/18 07:35:51;;;;;;;27.50;16.00;;;;;;;24.51;77.39;99895.25;106163;1273;23361;-63
2022/08/18 07:38:30;;;;;;;26.40;15.30;;;;;;;24.60;77.01;99895.30;106134;1271;22631;-61
2022/08/18 07:41:08;;;;;;;29.20;15.90;;;;;;;24.68;76.74;99894.02;105960;1273;22625;-63
2022/08/18 07:43:51;;;;;;;24.20;13.70;;;;;;;24.79;76.38;99887.98;105993;1273;22605;-64
2022/08/18 07:46:32;;;;;;;23.50;14.40;;;;;;;24.89;75.61;99888.38;106027;1271;22540;-62
2022/08/18 07:49:06;;;;;;;24.70;14.40;;;;;;;24.99;75.45;99887.36;106299;1273;22762;-62
2022/08/18 07:51:48;;;;;;;28.10;13.80;;;;;;;25.10;75.45;99885.59;106013;1271;25211;-63
2022/08/18 07:54:34;;;;;;;24.10;13.70;;;;;;;25.23;75.27;99887.33;105896;1273;22802;-63
2022/08/18 07:57:13;;;;;;;25.90;14.30;;;;;;;25.35;74.70;99891.37;105930;1273;23762;-64
2022/08/18 07:59:54;;;;;;;24.40;13.70;;;;;;;25.45;74.50;99895.47;105993;1272;22548;-63
2022/08/18 08:02:42;;;;;;;24.80;12.90;;;;;;;25.56;74.20;99898.39;106303;1271;22675;-64
2022/08/18 08:05:25;;;;;;;23.20;13.90;;;;;;;25.68;73.87;99897.63;106227;1271;22578;-63
2022/08/18 08:08:05;;;;;;;24.40;13.10;;;;;;;25.79;73.35;99902.09;106156;1271;22860;-65
2022/08/18 08:10:48;;;;;;;20.00;12.80;;;;;;;25.90;73.29;99903.98;106218;1271;23497;-64
2022/08/18 08:13:34;;;;;;;22.90;13.40;;;;;;;26.02;72.66;99904.73;106168;1271;22682;-64
2022/08/18 08:16:20;;;;;;;24.30;13.30;;;;;;;26.12;72.12;99906.16;106037;1271;25378;-64
2022/08/18 08:19:03;;;;;;;21.90;12.80;;;;;;;26.21;71.73;99902.73;106156;1272;24385;-62
2022/08/18 08:21:43;;;;;;;20.10;12.40;;;;;;;26.34;71.55;99905.87;106202;1271;25484;-64
2022/08/18 08:24:21;;;;;;;20.40;12.10;;;;;;;26.45;71.46;99905.91;106119;1271;24274;-63
2022/08/18 08:27:02;;;;;;;20.60;12.60;;;;;;;26.53;70.50;99912.96;105982;1271;24215;-63
2022/08/18 08:29:44;;;;;;;23.50;13.00;;;;;;;26.62;70.12;99913.73;106252;1271;22554;-65
2022/08/18 08:32:22;;;;;;;25.60;12.20;;;;;;;26.72;69.88;99921.85;106342;1271;23071;-65
2022/08/18 08:34:59;;;;;;;26.70;12.70;;;;;;;26.81;69.63;99921.57;106542;1272;22605;-65
2022/08/18 08:37:37;;;;;;;21.60;11.70;;;;;;;26.94;69.40;99925.03;106632;1271;25255;-65
2022/08/18 08:40:13;;;;;;;20.20;12.30;;;;;;;27.04;68.42;99925.48;106618;1271;25252;-64
2022/08/18 08:42:53;;;;;;;22.40;12.70;;;;;;;27.12;68.18;99925.98;106631;1271;24349;-65
2022/08/18 08:45:30;;;;;;;24.40;11.20;;;;;;;27.19;68.02;99923.63;106541;1271;23140;-65
2022/08/18 08:48:07;;;;;;;21.80;11.50;;;;;;;27.29;66.78;99927.79;106511;1271;22476;-64
2022/08/18 08:50:45;;;;;;;21.50;11.50;;;;;;;27.39;67.08;99931.55;106515;1271;25265;-64
2022/08/18 08:53:25;;;;;;;21.40;11.30;;;;;;;27.50;66.02;99928.23;106568;1271;24220;-64
2022/08/18 08:56:02;;;;;;;22.10;10.80;;;;;;;27.57;65.47;99926.46;106594;1271;22550;-64
2022/08/18 08:58:39;;;;;;;18.90;10.90;;;;;;;27.62;65.12;99925.10;105955;1271;22616;-61
2022/08/18 09:01:19;;;;;;;22.50;11.40;;;;;;;27.68;64.78;99925.21;105744;1271;22527;-60
2022/08/18 09:03:58;;;;;;;18.70;12.10;;;;;;;27.73;64.39;99923.60;105990;1271;22577;-61
2022/08/18 09:06:39;;;;;;;21.50;12.70;;;;;;;27.81;64.10;99920.47;105881;1271;25377;-60
2022/08/18 09:09:25;;;;;;;18.20;11.10;;;;;;;27.91;63.87;99922.19;105898;1271;22708;-61
2022/08/18 09:12:12;;;;;;;18.10;10.60;;;;;;;28.00;63.47;99916.96;105745;1271;22827;-59
2022/08/18 09:15:03;;;;;;;18.10;9.90;;;;;;;28.07;62.71;99918.05;105727;1271;22574;-61
2022/08/18 09:17:57;;;;;;;18.00;11.50;;;;;;;28.09;61.62;99910.41;105677;1271;23146;-61
2022/08/18 09:20:46;;;;;;;16.50;9.80;;;;;;;28.12;61.43;99917.13;106173;1271;24359;-61
2022/08/18 09:23:18;;;;;;;;;;;;;;;28.23;61.58;99913.83;105765;1271;24385;-62
2022/08/18 09:25:53;;;;;;;20.10;10.10;;;;;;;28.31;61.17;99906.70;105673;1271;22531;-62
2022/08/18 09:28:55;;;;;;;20.10;10.60;;;;;;;28.37;61.08;99905.66;105736;1271;23753;-61
2022/08/18 09:31:29;;;;;;;14.00;7.70;;;;;;;28.45;59.93;99910.13;106055;1271;22541;-61
2022/08/18 09:34:27;;;;;;;17.00;9.00;;;;;;;28.55;59.02;99909.38;106085;1271;24316;-61
2022/08/18 09:37:20;;;;;;;18.70;9.70;;;;;;;28.66;58.47;99905.42;105703;1271;22549;-61
2022/08/18 09:42:56;;;;;;;15.50;8.30;;;;;;;28.85;58.05;99898.07;105754;1271;25256;-61
2022/08/18 09:45:55;;;;;;;15.50;8.00;;;;;;;28.97;57.49;99897.73;105855;1271;22557;-63
2022/08/18 09:48:30;;;;;;;;;;;;;;;29.06;57.35;99895.77;106069;1271;22666;-61
2022/08/18 09:51:23;;;;;;;15.10;7.50;;;;;;;29.10;57.10;99892.89;105966;1271;26144;-61
2022/08/18 09:54:16;;;;;;;21.20;9.40;;;;;;;29.22;57.06;99889.66;105829;1271;25265;-61
2022/08/18 09:57:17;;;;;;;16.10;7.20;;;;;;;29.33;56.47;99882.21;105779;1271;22695;-62
2022/08/18 10:00:18;;;;;;;17.10;7.00;;;;;;;29.38;55.61;99875.26;105479;1276;22544;-62
2022/08/18 10:03:23;;;;;;;15.40;6.50;;;;;;;29.47;55.11;99868.75;105555;1276;22537;-61
2022/08/18 10:06:22;;;;;;;14.50;7.40;;;;;;;29.59;54.87;99863.33;105579;1276;24271;-61
2022/08/18 10:09:07;;;;;;;;;;;;;;;29.69;54.60;99854.17;105489;1276;22672;-62
2022/08/18 10:11:51;;;;;;;18.40;8.50;;;;;;;29.76;54.09;99853.23;105518;1276;24381;-61
2022/08/18 10:14:39;;;;;;;16.90;8.90;;;;;;;29.79;54.34;99849.52;105519;1276;24230;-61
2022/08/18 10:17:33;;;;;;;18.80;9.10;;;;;;;29.80;54.15;99840.68;105530;1276;25399;-61
2022/08/18 10:20:20;;;;;;;18.70;8.70;;;;;;;29.85;54.10;99830.17;105591;1277;22541;-62
2022/08/18 10:22:53;;;;;;;18.40;8.80;;;;;;;29.90;53.71;99826.06;105737;1276;24249;-62
2022/08/18 10:25:41;;;;;;;15.90;8.90;;;;;;;29.92;53.36;99819.70;105488;1277;26067;-61
2022/08/18 10:28:50;;;;;;;20.20;9.30;;;;;;;29.93;53.14;99816.77;105453;1277;25506;-61
2022/08/18 10:31:21;;;;;;;;;;;;;;;29.95;53.03;99817.41;105518;1277;22638;-62
2022/08/18 10:34:12;;;;;;;16.40;9.20;;;;;;;29.94;52.37;99816.36;105478;1277;22525;-63
2022/08/18 10:36:55;;;;;;;15.80;9.30;;;;;;;29.91;52.19;99812.61;105673;1271;22544;-61
2022/08/18 10:39:46;;;;;;;16.30;8.10;;;;;;;29.91;51.90;99808.40;105988;1271;22687;-62
2022/08/18 10:42:23;;;;;;;13.70;7.90;;;;;;;29.91;51.60;99806.71;105881;1271;25554;-62
2022/08/18 10:45:13;;;;;;;20.30;8.60;;;;;;;29.93;51.40;99809.70;106022;1272;22554;-62
2022/08/18 10:47:43;;;;;;;;;;;;;;;29.96;51.79;99813.21;105878;1271;22562;-61
2022/08/18 10:50:21;;;;;;;17.30;8.60;;;;;;;29.98;51.10;99815.59;105795;1271;25085;-62
2022/08/18 10:53:12;;;;;;;17.90;8.00;;;;;;;29.95;50.88;99810.67;105888;1271;22721;-62
2022/08/18 10:55:57;;;;;;;17.70;7.60;;;;;;;29.94;50.52;99807.44;105988;1271;22553;-62
2022/08/18 10:58:55;;;;;;;19.30;8.20;;;;;;;29.95;50.44;99804.65;106079;1271;22545;-62
2022/08/18 11:01:55;;;;;;;14.00;7.50;;;;;;;29.99;50.08;99804.21;105963;1271;22570;-62
2022/08/18 11:04:35;;;;;;;18.00;8.00;;;;;;;30.01;49.54;99805.88;105660;1274;25343;-62
2022/08/18 11:07:14;;;;;;;13.20;7.10;;;;;;;30.03;49.35;99803.67;105892;1274;22697;-63
2022/08/18 11:09:50;;;;;;;15.80;6.60;;;;;;;30.04;48.47;99792.84;105678;1275;25229;-61
2022/08/18 11:12:53;;;;;;;14.10;6.50;;;;;;;30.04;48.25;99787.23;109638;1274;22520;-62
2022/08/18 11:15:31;;;;;;;16.10;7.50;;;;;;;30.05;48.08;99786.27;109583;1274;23433;-62
2022/08/18 11:18:20;;;;;;;14.10;7.10;;;;;;;30.07;47.77;99788.70;106213;1274;22538;-62
2022/08/18 11:20:53;;;;;;;18.10;8.00;;;;;;;30.08;47.75;99795.10;105847;1272;22553;-62
2022/08/18 11:23:25;;;;;;;13.10;7.20;;;;;;;30.10;47.60;99796.93;105903;1272;22568;-62
2022/08/18 11:26:13;;;;;;;12.20;7.10;;;;;;;30.12;47.55;99794.30;106065;1272;22562;-61
2022/08/18 11:28:45;;;;;;;14.20;7.30;;;;;;;30.13;47.53;99792.07;106047;1271;22554;-62
2022/08/18 11:31:17;;;;;;;12.00;6.30;;;;;;;30.17;47.35;99793.17;105953;1271;22781;-63
2022/08/18 11:33:50;;;;;;;15.10;7.20;;;;;;;30.19;47.34;99789.41;105660;1271;24281;-63
2022/08/18 11:36:31;;;;;;;14.40;6.80;;;;;;;30.22;47.08;99788.16;105946;1271;25460;-63
2022/08/18 11:39:04;;;;;;;12.90;7.10;;;;;;;30.23;46.91;99788.53;105926;1271;25248;-62
2022/08/18 11:41:36;;;;;;;15.50;7.00;;;;;;;30.25;46.63;99780.56;105795;1271;24336;-63
2022/08/18 11:44:19;;;;;;;12.00;6.70;;;;;;;30.28;46.54;99783.10;105801;1271;22712;-62
2022/08/18 11:46:54;;;;;;;17.90;7.60;;;;;;;30.31;46.37;99778.41;106002;1272;23248;-64
2022/08/18 11:49:33;;;;;;;15.80;8.90;;;;;;;30.34;46.37;99773.09;105796;1271;22981;-62
2022/08/18 11:52:18;;;;;;;12.80;6.80;;;;;;;30.39;46.17;99774.64;105956;1271;22562;-63
2022/08/18 11:54:51;;;;;;;16.80;7.90;;;;;;;30.41;45.89;99776.93;105915;1271;25520;-63
2022/08/18 11:57:51;;;;;;;13.90;8.00;;;;;;;30.42;45.72;99773.80;105869;1274;22557;-63
2022/08/18 12:00:57;;;;;;;17.10;8.60;;;;;;;30.46;45.78;99771.77;105761;1271;22554;-62
2022/08/18 12:03:39;;;;;;;15.60;7.60;;;;;;;30.50;44.93;99778.91;105493;1279;23839;-62
2022/08/18 12:06:26;;;;;;;16.50;8.70;;;;;;;30.48;44.97;99776.38;105584;1279;25377;-64
2022/08/18 12:09:02;;;;;;;17.40;8.60;;;;;;;30.52;45.32;99773.27;105608;1279;22628;-65
2022/08/18 12:11:37;;;;;;;17.50;9.70;;;;;;;30.52;44.80;99774.71;105514;1281;22563;-60
2022/08/18 12:14:21;;;;;;;14.70;7.90;;;;;;;30.53;44.68;99774.94;105451;1281;22547;-64
2022/08/18 12:16:54;;;;;;;15.60;8.70;;;;;;;30.56;44.32;99770.36;105522;1281;22554;-64
2022/08/18 12:19:29;;;;;;;14.60;7.50;;;;;;;30.59;44.25;99768.37;105862;1281;22538;-62